createdAt,value
2017-10-24T00:04:08.570Z,0
2017-10-24T00:14:01.493Z,0
2017-10-24T00:23:59.352Z,0
2017-10-24T00:34:01.406Z,0
2017-10-24T00:43:57.352Z,0
2017-10-24T00:54:11.628Z,0
2017-10-24T01:04:05.025Z,0
2017-10-24T01:13:57.447Z,0
2017-10-24T01:23:59.437Z,0
2017-10-24T01:34:14.745Z,0
2017-10-24T01:44:02.422Z,0
2017-10-24T01:53:58.380Z,0
2017-10-24T02:03:59.392Z,0
2017-10-24T02:13:57.399Z,0
2017-10-24T02:23:57.498Z,0
2017-10-24T02:33:57.420Z,0
2017-10-24T02:44:02.803Z,0
2017-10-24T02:53:59.538Z,0
2017-10-24T03:04:01.008Z,0
2017-10-24T03:13:57.467Z,0
2017-10-24T03:24:02.336Z,0
2017-10-24T03:33:57.488Z,0
2017-10-24T03:44:03.078Z,0
2017-10-24T03:54:01.193Z,0
2017-10-24T04:03:57.584Z,0
2017-10-24T04:14:00.722Z,0
2017-10-24T04:24:05.884Z,0
2017-10-24T04:33:59.605Z,0
2017-10-24T04:43:59.574Z,0
2017-10-24T04:54:03.625Z,0
2017-10-24T05:03:57.531Z,0
2017-10-24T05:13:58.646Z,0
2017-10-24T05:23:58.612Z,0
2017-10-24T05:34:07.194Z,0
2017-10-24T05:44:04.586Z,4
2017-10-24T05:53:59.587Z,12
2017-10-24T06:04:10.496Z,52
2017-10-24T06:14:02.183Z,68
2017-10-24T06:23:58.693Z,116
2017-10-24T06:34:03.440Z,172
2017-10-24T06:43:58.551Z,272
2017-10-24T06:53:57.737Z,368
2017-10-24T07:03:59.762Z,696
2017-10-24T07:13:57.767Z,868
2017-10-24T07:23:58.780Z,1092
2017-10-24T07:33:57.796Z,1916
2017-10-24T07:43:58.075Z,2400
2017-10-24T07:53:59.767Z,2388
2017-10-24T08:04:03.513Z,3752
2017-10-24T08:13:59.787Z,2936
2017-10-24T08:23:57.786Z,3336
2017-10-24T08:33:57.757Z,2292
2017-10-24T08:43:57.870Z,2360
2017-10-24T08:53:57.798Z,2552
2017-10-24T09:03:58.201Z,5660
2017-10-24T09:13:58.047Z,3016
2017-10-24T09:23:57.814Z,2720
2017-10-24T09:33:58.108Z,2252
2017-10-24T09:43:58.179Z,2452
2017-10-24T09:53:57.814Z,2968
2017-10-24T10:03:58.288Z,3628
2017-10-24T10:13:58.197Z,3580
2017-10-24T10:23:57.882Z,2900
2017-10-24T10:33:58.418Z,3464
2017-10-24T10:43:58.162Z,4544
2017-10-24T10:53:57.867Z,4280
2017-10-24T11:03:58.255Z,4088
2017-10-24T11:13:57.991Z,6040
2017-10-24T11:23:57.913Z,4888
2017-10-24T11:33:57.944Z,6452
2017-10-24T11:43:57.965Z,4184
2017-10-24T11:53:57.978Z,6560
2017-10-24T12:03:57.949Z,4932
2017-10-24T12:13:57.944Z,3248
2017-10-24T12:23:57.967Z,5848
2017-10-24T12:33:58.070Z,4496
2017-10-24T12:43:58.036Z,5748
2017-10-24T12:53:57.992Z,3252
2017-10-24T13:03:57.982Z,4324
2017-10-24T13:13:58.060Z,7468
2017-10-24T13:23:58.071Z,4712
2017-10-24T13:33:58.130Z,3808
2017-10-24T13:43:58.201Z,3260
2017-10-24T13:53:58.163Z,2976
2017-10-24T14:03:58.156Z,2740
2017-10-24T14:13:58.289Z,2488
2017-10-24T14:23:59.764Z,2564
2017-10-24T14:33:58.967Z,1532
2017-10-24T14:43:58.827Z,764
2017-10-24T14:53:58.731Z,1172
2017-10-24T15:03:58.581Z,1384
2017-10-24T15:13:58.401Z,884
2017-10-24T15:23:58.367Z,768
2017-10-24T15:33:58.264Z,368
2017-10-24T15:43:58.325Z,228
2017-10-24T15:53:58.347Z,172
2017-10-24T16:03:58.264Z,92
2017-10-24T16:13:58.416Z,32
2017-10-24T16:23:58.324Z,8
2017-10-24T16:33:58.432Z,4
2017-10-24T16:43:58.283Z,0
2017-10-24T16:53:58.524Z,0
2017-10-24T17:03:59.029Z,4
2017-10-24T17:13:59.169Z,0
2017-10-24T17:23:58.278Z,0
2017-10-24T17:33:58.404Z,0
2017-10-24T17:43:58.697Z,4
2017-10-24T17:53:58.312Z,4
2017-10-24T18:03:58.332Z,0
2017-10-24T18:13:58.301Z,0
2017-10-24T18:23:58.325Z,4
2017-10-24T18:33:58.348Z,0
2017-10-24T18:43:58.408Z,0
2017-10-24T18:53:58.492Z,8
2017-10-24T19:03:58.471Z,4
2017-10-24T19:13:58.400Z,0
2017-10-24T19:23:58.472Z,0
2017-10-24T19:33:58.429Z,0
2017-10-24T19:43:58.687Z,0
2017-10-24T19:53:58.672Z,0
2017-10-24T20:03:58.512Z,0
2017-10-24T20:13:59.672Z,4
2017-10-24T20:23:58.671Z,4
2017-10-24T20:33:58.523Z,0
2017-10-24T20:43:58.887Z,0
2017-10-24T20:53:58.571Z,4
2017-10-24T21:03:58.691Z,4
2017-10-24T21:14:00.205Z,4
2017-10-24T21:23:58.700Z,0
2017-10-24T21:33:58.678Z,0
2017-10-24T21:43:58.684Z,0
2017-10-24T21:53:58.742Z,0
2017-10-24T22:03:58.715Z,0
2017-10-24T22:13:58.662Z,4
2017-10-24T22:24:07.197Z,0
2017-10-24T22:33:58.703Z,0
2017-10-24T22:43:58.611Z,0
2017-10-24T22:53:58.724Z,0
2017-10-24T23:03:58.635Z,0
2017-10-24T23:13:58.725Z,0
2017-10-24T23:23:58.770Z,0
2017-10-24T23:33:58.715Z,0
2017-10-24T23:43:58.725Z,0
2017-10-24T23:53:59.014Z,0
